createdAt,value
2023-05-20T00:02:17.901Z,594.1
2023-05-20T00:12:17.439Z,594.1
2023-05-20T00:22:16.622Z,594.1
2023-05-20T00:32:16.607Z,594.1
2023-05-20T00:42:16.435Z,594.1
2023-05-20T00:52:16.234Z,594.1
2023-05-20T01:02:17.882Z,594.1
2023-05-20T01:12:17.538Z,594.1
2023-05-20T01:22:17.429Z,594.1
2023-05-20T01:32:17.251Z,1057.1
2023-05-20T01:42:17.080Z,1057.1
2023-05-20T01:52:17.075Z,1057.1
2023-05-20T02:02:16.254Z,1057.1
2023-05-20T02:12:16.581Z,1057.1
2023-05-20T02:22:16.394Z,1057.1
2023-05-20T02:32:16.527Z,1057.1
2023-05-20T02:42:16.652Z,1057.1
2023-05-20T02:52:16.147Z,1057.1
2023-05-20T03:02:06.176Z,0
2023-05-20T03:12:06.371Z,0
2023-05-20T03:22:06.614Z,0
2023-05-20T03:32:08.729Z,0
2023-05-20T03:42:14.727Z,0
2023-05-20T03:52:23.985Z,0
2023-05-20T04:02:39.053Z,0
2023-05-20T04:12:57.006Z,0
2023-05-20T04:23:13.635Z,0
2023-05-20T04:33:31.304Z,0
2023-05-20T04:43:48.013Z,0
2023-05-20T04:54:05.874Z,0
2023-05-20T05:04:21.512Z,0
2023-05-20T05:14:37.590Z,0
2023-05-20T05:24:54.901Z,0
2023-05-20T05:35:10.981Z,0
2023-05-20T05:45:28.759Z,0
2023-05-20T05:55:45.883Z,0
2023-05-20T06:06:03.115Z,0
2023-05-20T06:16:20.466Z,0
2023-05-20T06:26:37.531Z,0
2023-05-20T06:36:54.538Z,0
2023-05-20T06:47:12.517Z,0
2023-05-20T06:57:30.701Z,0
2023-05-20T07:07:47.750Z,0
2023-05-20T07:18:02.611Z,0
2023-05-20T07:28:17.312Z,0
2023-05-20T07:38:32.532Z,0
2023-05-20T07:48:47.561Z,0
2023-05-20T07:59:02.191Z,0
2023-05-20T08:09:17.033Z,0
2023-05-20T08:19:35.763Z,0
2023-05-20T08:29:54.430Z,105.4
2023-05-20T08:40:13.182Z,107.4
2023-05-20T08:50:32.876Z,108.8
2023-05-20T09:02:11.674Z,111.8
2023-05-20T09:12:30.504Z,109.7
2023-05-20T09:22:46.977Z,109.7
2023-05-20T09:33:07.085Z,112.9
2023-05-20T09:43:25.597Z,114.1
2023-05-20T09:53:44.153Z,114.1
2023-05-20T10:04:04.087Z,118.6
2023-05-20T10:14:23.729Z,118.8
2023-05-20T10:24:43.871Z,119.9
2023-05-20T10:35:03.884Z,118.4
2023-05-20T10:45:24.335Z,119.3
2023-05-20T10:55:43.784Z,118.8
2023-05-20T11:06:02.597Z,118.8
2023-05-20T11:16:21.904Z,118.8
2023-05-20T11:26:38.787Z,121.6
2023-05-20T11:36:53.966Z,124.1
2023-05-20T11:47:06.980Z,119.6
2023-05-20T11:57:21.156Z,118.6
2023-05-20T12:07:31.370Z,118.6
2023-05-20T12:17:37.925Z,114.4
2023-05-20T12:27:38.606Z,114.4
2023-05-20T12:37:38.648Z,114.4
2023-05-20T12:47:37.891Z,114.4
2023-05-20T12:57:37.619Z,114.4
2023-05-20T13:07:37.297Z,114.4
2023-05-20T13:17:41.077Z,114.4
2023-05-20T13:27:45.759Z,114.4
2023-05-20T13:37:50.951Z,114.4
2023-05-20T13:47:51.479Z,114.4
2023-05-20T13:57:51.805Z,114.4
2023-05-20T14:07:53.977Z,114.4
2023-05-20T14:17:59.604Z,999.6
2023-05-20T14:28:10.185Z,104.4
2023-05-20T14:38:15.932Z,104.4
2023-05-20T14:48:21.781Z,104.4
2023-05-20T14:58:32.116Z,108.4
2023-05-20T15:02:10.027Z,0
2023-05-20T15:12:19.170Z,0
2023-05-20T15:22:23.153Z,108.6
2023-05-20T15:32:23.489Z,108.6
2023-05-20T15:42:24.212Z,108.6
2023-05-20T15:52:23.416Z,108.6
2023-05-20T16:02:23.826Z,108.6
2023-05-20T16:12:23.827Z,108.6
2023-05-20T16:22:24.447Z,108.6
2023-05-20T16:32:26.394Z,108.6
2023-05-20T16:42:27.944Z,108.6
2023-05-20T16:52:29.703Z,108.6
2023-05-20T17:02:31.101Z,108.6
2023-05-20T17:12:31.637Z,108.6
2023-05-20T17:22:32.133Z,108.6
2023-05-20T17:32:32.460Z,108.6
2023-05-20T17:42:33.243Z,108.6
2023-05-20T17:52:33.298Z,108.6
2023-05-20T18:02:34.226Z,108.6
2023-05-20T18:12:33.597Z,108.6
2023-05-20T18:22:33.888Z,108.6
2023-05-20T18:32:33.927Z,108.6
2023-05-20T18:42:32.449Z,108.6
2023-05-20T18:52:33.872Z,108.6
2023-05-20T19:02:33.724Z,108.6
2023-05-20T19:12:33.918Z,108.6
2023-05-20T19:22:33.892Z,108.6
2023-05-20T19:32:33.022Z,108.6
2023-05-20T19:42:33.554Z,108.6
2023-05-20T19:52:33.309Z,108.6
2023-05-20T20:02:33.094Z,108.6
2023-05-20T20:12:33.545Z,108.6
2023-05-20T20:22:34.084Z,108.6
2023-05-20T20:32:35.091Z,108.6
2023-05-20T20:42:33.891Z,108.6
2023-05-20T20:52:33.715Z,108.6
2023-05-20T21:02:07.281Z,0
2023-05-20T21:12:07.146Z,0
2023-05-20T21:22:07.515Z,0
2023-05-20T21:32:07.705Z,0
2023-05-20T21:42:07.334Z,0
2023-05-20T21:52:07.174Z,0
2023-05-20T22:02:10.888Z,161.1
2023-05-20T22:12:08.721Z,161.1
2023-05-20T22:22:12.382Z,161.1
2023-05-20T22:32:10.153Z,161.1
2023-05-20T22:42:11.533Z,161.1
2023-05-20T22:52:12.320Z,161.1
2023-05-20T23:02:12.893Z,161.1
2023-05-20T23:12:12.042Z,161.1
2023-05-20T23:22:12.066Z,161.1
2023-05-20T23:32:12.065Z,161.1
2023-05-20T23:42:11.824Z,161.1
2023-05-20T23:52:11.471Z,161.1
